This is the latest recevied weather packets stored in our database for station/object KE5KUL-13. If no packets are shown the sender has not sent any weather packets the latest 10 day(s).
| Time | Temp. | Humidity | Pressure | Rain* | Wind** | Luminosity | Snow |
|---|---|---|---|---|---|---|---|
| 1777511417 | 18.89° C | 36% | 1015.6 hPa | 0 mm | - | - | - |
| 1777510218 | 19.44° C | 34% | 1015.6 hPa | 0 mm | - | - | - |
| 1777507817 | 20.56° C | 31% | 1015.9 hPa | 0 mm | - | - | - |
| 1777505420 | 21.11° C | 30% | 1015.9 hPa | 0 mm | - | - | - |
| 1777498219 | 22.78° C | 25% | 1017.1 hPa | 0 mm | - | - | - |
| 1777497619 | 22.22° C | 26% | 1017.2 hPa | 0 mm | - | - | - |
| 1777492819 | 22.22° C | 26% | 1018.6 hPa | 0 mm | - | - | - |
| 1777490419 | 22.22° C | 26% | 1018.9 hPa | 0 mm | - | - | - |
| 1777486819 | 20.56° C | 32% | 1019.7 hPa | 0 mm | - | - | - |
| 1777479619 | 16.67° C | 48% | 1020.6 hPa | 0 mm | - | - | - |
| 1777468218 | 7.22° C | 79% | 1020.6 hPa | 0 mm | - | - | - |
| 1777465218 | 6.67° C | 78% | 1021.1 hPa | 0 mm | - | - | - |
| 1777462218 | 7.22° C | 76% | 1020.7 hPa | 0 mm | - | - | - |
| 1777461618 | 7.78° C | 75% | 1020.4 hPa | 0 mm | - | - | - |
| 1777459818 | 8.33° C | 72% | 1020.7 hPa | 0 mm | - | - | - |
| 1777459218 | 8.33° C | 72% | 1020.6 hPa | 0 mm | - | - | - |
| 1777458017 | 8.33° C | 72% | 1020.8 hPa | 0 mm | - | - | - |
| 1777457418 | 8.33° C | 72% | 1020.6 hPa | 0 mm | - | - | - |
| 1777455618 | 8.89° C | 71% | 1020.9 hPa | 0 mm | - | - | - |
| 1777455018 | 8.89° C | 70% | 1020.8 hPa | 0 mm | - | - | - |
| 1777454418 | 8.89° C | 69% | 1020.9 hPa | 0 mm | - | - | - |
| 1777453818 | 8.89° C | 68% | 1020.9 hPa | 0 mm | - | - | - |
| 1777453217 | 9.44° C | 67% | 1021.2 hPa | 0 mm | - | - | - |
| 1777452018 | 10° C | 65% | 1020.9 hPa | 0 mm | - | - | - |
| 1777451417 | 10° C | 64% | 1021.3 hPa | 0 mm | - | - | - |
* Rain latest hour (hover to see other rain measurements)
** Current wind speed in m/s (hover to see current wind gust speed)